sensor_id;sensor_type;location;lat;lon;timestamp;pressure;altitude;pressure_sealevel;temperature;humidity
63582;BME280;49727;51.078;17.066;2022-08-03T00:01:00;100386.28;;;17.45;63.53
63582;BME280;49727;51.078;17.066;2022-08-03T00:16:00;100392.75;;;17.31;64.31
63582;BME280;49727;51.078;17.066;2022-08-03T00:31:01;100390.91;;;17.11;65.13
63582;BME280;49727;51.078;17.066;2022-08-03T00:46:01;100384.72;;;16.90;66.00
63582;BME280;49727;51.078;17.066;2022-08-03T01:01:02;100383.03;;;16.76;66.89
63582;BME280;49727;51.078;17.066;2022-08-03T01:16:17;100380.13;;;16.64;67.36
63582;BME280;49727;51.078;17.066;2022-08-03T01:31:21;100368.31;;;16.45;68.03
63582;BME280;49727;51.078;17.066;2022-08-03T01:46:23;100369.72;;;16.28;68.88
63582;BME280;49727;51.078;17.066;2022-08-03T02:01:26;100359.31;;;16.04;69.68
63582;BME280;49727;51.078;17.066;2022-08-03T02:16:27;100352.06;;;15.98;70.37
63582;BME280;49727;51.078;17.066;2022-08-03T02:31:32;100355.72;;;15.84;70.86
63582;BME280;49727;51.078;17.066;2022-08-03T02:46:37;100349.69;;;15.75;71.60
63582;BME280;49727;51.078;17.066;2022-08-03T03:01:39;100358.63;;;15.82;71.88
63582;BME280;49727;51.078;17.066;2022-08-03T03:16:40;100363.59;;;15.85;72.13
63582;BME280;49727;51.078;17.066;2022-08-03T03:31:41;100372.28;;;15.87;72.68
63582;BME280;49727;51.078;17.066;2022-08-03T03:46:42;100360.34;;;15.97;72.83
63582;BME280;49727;51.078;17.066;2022-08-03T04:01:42;100378.78;;;16.13;72.77
63582;BME280;49727;51.078;17.066;2022-08-03T04:16:49;100377.59;;;16.22;72.59
63582;BME280;49727;51.078;17.066;2022-08-03T04:31:53;100385.81;;;16.21;72.41
63582;BME280;49727;51.078;17.066;2022-08-03T04:46:55;100399.28;;;16.28;72.88
63582;BME280;49727;51.078;17.066;2022-08-03T05:01:56;100400.16;;;16.48;72.92
63582;BME280;49727;51.078;17.066;2022-08-03T05:16:56;100386.53;;;16.63;72.80
63582;BME280;49727;51.078;17.066;2022-08-03T05:31:56;100389.28;;;17.03;72.93
63582;BME280;49727;51.078;17.066;2022-08-03T05:46:57;100404.72;;;17.55;72.69
63582;BME280;49727;51.078;17.066;2022-08-03T06:01:58;100414.34;;;18.41;71.56
63582;BME280;49727;51.078;17.066;2022-08-03T06:16:58;100413.09;;;19.26;70.34
63582;BME280;49727;51.078;17.066;2022-08-03T06:32:00;100417.28;;;20.34;68.50
63582;BME280;49727;51.078;17.066;2022-08-03T06:47:00;100423.41;;;21.13;66.64
63582;BME280;49727;51.078;17.066;2022-08-03T07:02:00;100430.50;;;22.43;63.27
63582;BME280;49727;51.078;17.066;2022-08-03T07:17:01;100413.50;;;23.33;60.28
63582;BME280;49727;51.078;17.066;2022-08-03T07:32:02;100418.81;;;24.56;57.39
63582;BME280;49727;51.078;17.066;2022-08-03T07:47:03;100409.91;;;25.36;54.26
63582;BME280;49727;51.078;17.066;2022-08-03T08:02:05;100412.53;;;26.47;49.36
63582;BME280;49727;51.078;17.066;2022-08-03T08:17:05;100410.34;;;27.42;45.72
63582;BME280;49727;51.078;17.066;2022-08-03T08:32:05;100417.03;;;28.41;41.84
63582;BME280;49727;51.078;17.066;2022-08-03T08:47:07;100415.75;;;28.62;39.98
63582;BME280;49727;51.078;17.066;2022-08-03T09:02:07;100413.53;;;29.33;37.99
63582;BME280;49727;51.078;17.066;2022-08-03T09:17:07;100403.56;;;29.91;35.96
63582;BME280;49727;51.078;17.066;2022-08-03T09:32:09;100386.75;;;30.69;34.88
63582;BME280;49727;51.078;17.066;2022-08-03T09:47:14;100389.53;;;31.44;33.24
63582;BME280;49727;51.078;17.066;2022-08-03T10:02:21;100377.09;;;31.46;32.38
63582;BME280;49727;51.078;17.066;2022-08-03T10:17:22;100368.44;;;32.03;31.64
63582;BME280;49727;51.078;17.066;2022-08-03T10:33:18;100350.13;;;31.85;30.93
63582;BME280;49727;51.078;17.066;2022-08-03T10:47:54;100356.84;;;32.52;30.11
63582;BME280;49727;51.078;17.066;2022-08-03T11:03:12;100355.66;;;32.98;29.66
63582;BME280;49727;51.078;17.066;2022-08-03T11:18:15;100343.69;;;33.43;28.36
63582;BME280;49727;51.078;17.066;2022-08-03T11:33:28;100339.38;;;34.47;26.55
63582;BME280;49727;51.078;17.066;2022-08-03T12:03:34;100309.53;;;35.69;24.61
63582;BME280;49727;51.078;17.066;2022-08-03T12:18:35;100304.69;;;35.45;23.70
63582;BME280;49727;51.078;17.066;2022-08-03T13:04:01;100284.91;;;34.21;24.76
63582;BME280;49727;51.078;17.066;2022-08-03T13:19:01;100279.50;;;34.51;24.58
63582;BME280;49727;51.078;17.066;2022-08-03T13:34:02;100267.53;;;33.51;25.04
63582;BME280;49727;51.078;17.066;2022-08-03T13:49:02;100272.25;;;33.68;24.85
63582;BME280;49727;51.078;17.066;2022-08-03T14:04:03;100257.59;;;32.83;25.59
63582;BME280;49727;51.078;17.066;2022-08-03T14:19:04;100247.63;;;33.22;25.40
63582;BME280;49727;51.078;17.066;2022-08-03T14:34:05;100243.41;;;32.67;25.50
63582;BME280;49727;51.078;17.066;2022-08-03T14:49:05;100232.25;;;31.96;26.20
63582;BME280;49727;51.078;17.066;2022-08-03T15:04:05;100216.25;;;31.38;26.93
63582;BME280;49727;51.078;17.066;2022-08-03T15:19:06;100211.06;;;31.23;26.33
63582;BME280;49727;51.078;17.066;2022-08-03T15:34:06;100197.09;;;31.33;26.74
63582;BME280;49727;51.078;17.066;2022-08-03T15:49:06;100200.00;;;31.00;26.85
63582;BME280;49727;51.078;17.066;2022-08-03T16:04:06;100183.09;;;31.07;27.66
63582;BME280;49727;51.078;17.066;2022-08-03T16:19:07;100184.50;;;30.77;27.64
63582;BME280;49727;51.078;17.066;2022-08-03T16:34:07;100170.81;;;30.30;28.67
63582;BME280;49727;51.078;17.066;2022-08-03T16:49:08;100162.97;;;30.23;29.29
63582;BME280;49727;51.078;17.066;2022-08-03T17:04:08;100177.00;;;30.08;29.69
63582;BME280;49727;51.078;17.066;2022-08-03T17:19:11;100183.50;;;29.79;29.95
63582;BME280;49727;51.078;17.066;2022-08-03T17:34:12;100188.28;;;29.54;30.72
63582;BME280;49727;51.078;17.066;2022-08-03T17:49:12;100196.03;;;29.28;31.44
63582;BME280;49727;51.078;17.066;2022-08-03T18:04:13;100205.63;;;28.87;33.13
63582;BME280;49727;51.078;17.066;2022-08-03T18:19:21;100214.94;;;28.32;34.75
63582;BME280;49727;51.078;17.066;2022-08-03T18:34:22;100224.41;;;27.76;35.99
63582;BME280;49727;51.078;17.066;2022-08-03T18:49:31;100239.16;;;27.30;37.22
63582;BME280;49727;51.078;17.066;2022-08-03T19:04:43;100236.88;;;26.88;38.50
63582;BME280;49727;51.078;17.066;2022-08-03T19:19:48;100243.19;;;26.52;39.31
63582;BME280;49727;51.078;17.066;2022-08-03T19:34:50;100236.38;;;26.18;40.01
63582;BME280;49727;51.078;17.066;2022-08-03T19:49:51;100244.81;;;25.91;40.58
63582;BME280;49727;51.078;17.066;2022-08-03T20:04:56;100257.31;;;25.56;41.03
63582;BME280;49727;51.078;17.066;2022-08-03T20:19:57;100250.06;;;25.14;41.42
63582;BME280;49727;51.078;17.066;2022-08-03T20:34:59;100261.91;;;24.87;41.71
63582;BME280;49727;51.078;17.066;2022-08-03T20:50:00;100272.28;;;24.20;42.57
63582;BME280;49727;51.078;17.066;2022-08-03T21:05:02;100269.75;;;23.59;43.83
63582;BME280;49727;51.078;17.066;2022-08-03T21:20:07;100260.38;;;23.05;45.27
63582;BME280;49727;51.078;17.066;2022-08-03T21:35:08;100261.84;;;22.74;46.24
63582;BME280;49727;51.078;17.066;2022-08-03T21:50:11;100276.78;;;22.54;47.26
63582;BME280;49727;51.078;17.066;2022-08-03T22:05:14;100270.69;;;22.47;47.96
63582;BME280;49727;51.078;17.066;2022-08-03T22:20:15;100270.63;;;22.42;47.99
63582;BME280;49727;51.078;17.066;2022-08-03T22:35:17;100269.31;;;21.98;48.99
63582;BME280;49727;51.078;17.066;2022-08-03T22:50:17;100280.56;;;21.61;49.77
63582;BME280;49727;51.078;17.066;2022-08-03T23:05:27;100268.00;;;21.43;50.88
63582;BME280;49727;51.078;17.066;2022-08-03T23:20:29;100270.28;;;21.63;50.81
63582;BME280;49727;51.078;17.066;2022-08-03T23:35:29;100269.25;;;21.00;51.46
63582;BME280;49727;51.078;17.066;2022-08-03T23:50:52;100282.41;;;20.61;52.95
